createdAt,value
2023-01-25T00:00:50.663Z,103129.13
2023-01-25T00:03:18.817Z,103118.47
2023-01-25T00:05:46.775Z,103116.13
2023-01-25T00:08:14.687Z,103125.75
2023-01-25T00:10:42.623Z,103118.75
2023-01-25T00:13:10.566Z,103109.94
2023-01-25T00:15:39.850Z,103054.59
2023-01-25T00:18:07.804Z,103106.38
2023-01-25T00:20:35.710Z,103107.22
2023-01-25T00:23:03.737Z,103099.50
2023-01-25T00:25:31.700Z,103102.91
2023-01-25T00:27:59.641Z,103100.19
2023-01-25T00:30:27.752Z,103094.81
2023-01-25T00:33:07.256Z,103095.69
2023-01-25T00:35:35.880Z,103094.00
2023-01-25T00:38:08.680Z,103094.81
2023-01-25T00:40:36.757Z,103093.81
2023-01-25T00:43:06.983Z,103097.25
2023-01-25T00:45:34.918Z,103093.00
2023-01-25T00:48:04.392Z,103093.88
2023-01-25T00:50:33.299Z,103096.34
2023-01-25T00:53:01.797Z,103087.78
2023-01-25T00:55:29.721Z,103065.56
2023-01-25T00:57:57.672Z,103074.63
2023-01-25T01:00:25.613Z,103067.44
2023-01-25T01:02:53.584Z,103072.59
2023-01-25T01:05:27.529Z,103072.47
2023-01-25T01:07:57.262Z,103069.16
2023-01-25T01:10:25.273Z,103078.91
2023-01-25T01:12:53.232Z,103076.44
2023-01-25T01:15:21.206Z,103069.41
2023-01-25T01:17:49.137Z,103074.63
2023-01-25T01:20:17.457Z,103074.78
2023-01-25T01:22:48.102Z,103074.06
2023-01-25T01:25:16.018Z,103066.81
2023-01-25T01:27:43.957Z,103065.97
2023-01-25T01:30:12.877Z,103071.31
2023-01-25T01:32:42.148Z,103068.13
2023-01-25T01:35:10.749Z,103062.91
2023-01-25T01:37:42.920Z,103070.75
2023-01-25T01:40:15.595Z,103059.38
2023-01-25T01:43:00.295Z,103048.59
2023-01-25T01:45:52.253Z,103044.25
2023-01-25T01:48:34.164Z,103037.25
2023-01-25T01:51:06.973Z,103048.66
2023-01-25T01:53:35.561Z,103041.97
2023-01-25T01:56:08.950Z,103031.06
2023-01-25T01:58:37.746Z,103035.63
2023-01-25T02:01:06.768Z,103033.84
2023-01-25T02:03:36.422Z,103028.63
2023-01-25T02:06:11.244Z,103028.03
2023-01-25T02:08:40.848Z,103028.13
2023-01-25T02:11:13.269Z,103025.44
2023-01-25T02:13:41.315Z,103025.34
2023-01-25T02:16:17.555Z,103028.69
2023-01-25T02:18:45.531Z,103009.81
2023-01-25T02:21:14.445Z,103008.94
2023-01-25T02:23:49.316Z,103025.00
2023-01-25T02:26:19.741Z,103013.41
2023-01-25T02:28:53.424Z,103027.75
2023-01-25T02:31:24.937Z,103022.41
2023-01-25T02:33:56.303Z,102994.56
2023-01-25T02:36:28.171Z,103031.94
2023-01-25T02:39:01.721Z,103026.72
2023-01-25T02:41:34.976Z,102987.34
2023-01-25T02:44:06.105Z,103018.72
2023-01-25T02:46:36.044Z,103010.97
2023-01-25T02:49:06.568Z,103015.31
2023-01-25T02:51:39.728Z,102996.66
2023-01-25T02:54:10.034Z,103011.81
2023-01-25T02:56:41.268Z,103003.16
2023-01-25T02:59:09.705Z,103000.50
2023-01-25T03:01:39.662Z,102994.31
2023-01-25T03:04:09.040Z,102982.25
2023-01-25T03:06:37.850Z,102972.63
2023-01-25T03:09:09.488Z,102974.41
2023-01-25T03:11:41.062Z,102982.00
2023-01-25T03:14:09.104Z,102980.09
2023-01-25T03:16:37.279Z,102975.84
2023-01-25T03:19:06.704Z,102971.56
2023-01-25T03:21:34.708Z,102939.47
2023-01-25T03:24:05.038Z,102969.09
2023-01-25T03:26:52.933Z,102964.78
2023-01-25T03:29:23.987Z,102970.16
2023-01-25T03:31:52.249Z,102971.94
2023-01-25T03:34:20.633Z,102954.81
2023-01-25T03:36:48.649Z,102959.06
2023-01-25T03:39:16.838Z,102955.88
2023-01-25T03:41:44.843Z,102963.47
2023-01-25T03:44:14.775Z,102960.75
2023-01-25T03:46:46.682Z,102954.72
2023-01-25T03:49:14.821Z,102953.59
2023-01-25T03:51:43.309Z,102948.28
2023-01-25T03:54:11.299Z,102929.84
2023-01-25T03:56:39.298Z,102945.59
2023-01-25T03:59:12.717Z,102948.13
2023-01-25T04:01:40.860Z,102942.91
2023-01-25T04:04:10.394Z,102946.47
2023-01-25T04:06:40.387Z,102935.84
2023-01-25T04:09:08.703Z,102947.69
2023-01-25T04:11:42.830Z,102935.38
2023-01-25T04:14:13.008Z,102942.41
2023-01-25T04:16:47.224Z,102925.59
2023-01-25T04:19:36.265Z,102915.97
2023-01-25T04:22:05.680Z,102919.88
2023-01-25T04:24:37.689Z,102910.56
2023-01-25T04:27:06.309Z,102910.44
2023-01-25T04:29:41.912Z,102906.00
2023-01-25T04:32:15.581Z,102911.16
2023-01-25T04:34:45.538Z,102904.22
2023-01-25T04:37:17.992Z,102906.81
2023-01-25T04:39:53.380Z,102887.34
2023-01-25T04:42:21.912Z,102896.44
2023-01-25T04:44:54.171Z,102892.94
2023-01-25T04:47:22.243Z,102904.31
2023-01-25T04:49:54.292Z,102904.22
2023-01-25T04:52:25.685Z,102903.25
2023-01-25T04:54:53.672Z,102895.41
2023-01-25T04:57:21.793Z,102898.16
2023-01-25T04:59:53.539Z,102895.47
2023-01-25T05:02:23.724Z,102885.13
2023-01-25T05:04:51.794Z,102888.66
2023-01-25T05:07:22.714Z,102902.66
2023-01-25T05:09:50.936Z,102878.34
2023-01-25T05:12:20.762Z,102888.91
2023-01-25T05:14:55.613Z,102882.78
2023-01-25T05:17:23.997Z,102882.84
2023-01-25T05:19:52.036Z,102873.00
2023-01-25T05:22:24.794Z,102878.47
2023-01-25T05:24:54.624Z,102873.19
2023-01-25T05:27:22.881Z,102876.72
2023-01-25T05:29:57.666Z,102848.13
2023-01-25T05:32:50.063Z,102825.03
2023-01-25T05:35:18.793Z,102876.56
2023-01-25T05:37:48.924Z,102870.53
2023-01-25T05:40:22.653Z,102863.59
2023-01-25T05:42:57.323Z,102860.91
2023-01-25T05:45:27.574Z,102857.56
2023-01-25T05:47:57.441Z,102857.63
2023-01-25T05:50:26.900Z,102854.97
2023-01-25T05:53:27.547Z,102792.66
2023-01-25T05:55:56.287Z,102868.00
2023-01-25T05:58:24.242Z,102865.97
2023-01-25T06:00:52.379Z,102857.47
2023-01-25T06:03:31.546Z,102860.25
2023-01-25T06:06:02.372Z,102853.31
2023-01-25T06:08:33.095Z,102854.28
2023-01-25T06:11:01.060Z,102855.22
2023-01-25T06:13:29.982Z,102843.91
2023-01-25T06:15:58.884Z,102848.34
2023-01-25T06:18:42.499Z,102851.53
2023-01-25T06:21:30.691Z,102835.88
2023-01-25T06:24:00.190Z,102840.25
2023-01-25T06:26:28.451Z,102837.72
2023-01-25T06:28:56.369Z,102839.53
2023-01-25T06:31:24.487Z,102841.97
2023-01-25T06:33:53.366Z,102833.00
2023-01-25T06:36:24.070Z,102837.66
2023-01-25T06:38:53.272Z,102832.44
2023-01-25T06:41:23.171Z,102831.22
2023-01-25T06:43:52.453Z,102842.03
2023-01-25T06:46:21.270Z,102838.63
2023-01-25T06:48:49.426Z,102840.41
2023-01-25T06:51:17.666Z,102824.59
2023-01-25T06:53:47.337Z,102836.94
2023-01-25T06:56:18.813Z,102843.03
2023-01-25T06:58:48.460Z,102836.94
2023-01-25T07:01:19.807Z,102844.16
2023-01-25T07:03:49.735Z,102832.59
2023-01-25T07:06:17.843Z,102832.59
2023-01-25T07:08:45.869Z,102840.63
2023-01-25T07:11:15.085Z,102835.19
2023-01-25T07:13:45.578Z,102829.94
2023-01-25T07:16:17.604Z,102833.63
2023-01-25T07:18:45.775Z,102832.09
2023-01-25T07:21:15.883Z,102837.31
2023-01-25T07:23:44.791Z,102820.88
2023-01-25T07:26:17.779Z,102819.75
2023-01-25T07:28:46.248Z,102830.28
2023-01-25T07:31:16.370Z,102827.63
2023-01-25T07:33:44.868Z,102839.84
2023-01-25T07:36:12.879Z,102839.19
2023-01-25T07:38:40.908Z,102829.94
2023-01-25T07:41:08.844Z,102833.72
2023-01-25T07:43:36.756Z,102844.19
2023-01-25T07:46:11.139Z,102833.63
2023-01-25T07:48:41.353Z,102823.50
2023-01-25T07:51:22.580Z,102828.81
2023-01-25T07:53:52.702Z,102822.91
2023-01-25T07:56:24.536Z,102821.88
2023-01-25T07:58:55.044Z,102809.31
2023-01-25T08:01:24.659Z,102814.03
2023-01-25T08:03:55.973Z,102811.09
2023-01-25T08:06:27.599Z,102813.22
2023-01-25T08:08:58.417Z,102815.53
2023-01-25T08:11:28.659Z,102816.41
2023-01-25T08:13:56.976Z,102824.41
2023-01-25T08:16:28.775Z,102820.97
2023-01-25T08:19:00.428Z,102814.75
2023-01-25T08:21:30.903Z,102814.16
2023-01-25T08:23:59.754Z,102817.69
2023-01-25T08:26:28.907Z,102804.41
2023-01-25T08:28:57.411Z,102806.44
2023-01-25T08:31:27.386Z,102809.88
2023-01-25T08:33:55.703Z,102807.41
2023-01-25T08:36:25.395Z,102809.19
2023-01-25T08:38:56.751Z,102803.81
2023-01-25T08:41:25.905Z,102800.53
2023-01-25T08:43:56.276Z,102790.91
2023-01-25T08:46:25.884Z,102796.06
2023-01-25T08:48:54.914Z,102788.38
2023-01-25T08:51:23.239Z,102776.88
2023-01-25T08:53:52.586Z,102782.47
2023-01-25T08:56:20.852Z,102759.91
2023-01-25T08:58:50.520Z,102769.41
2023-01-25T09:01:20.594Z,102763.47
2023-01-25T09:03:50.580Z,102773.28
2023-01-25T09:06:19.826Z,102769.88
2023-01-25T09:08:48.761Z,102766.66
2023-01-25T09:11:20.515Z,102756.97
2023-01-25T09:13:49.142Z,102742.94
2023-01-25T09:16:18.884Z,102765.47
2023-01-25T09:18:49.751Z,102755.63
2023-01-25T09:21:19.819Z,102750.75
2023-01-25T09:23:51.605Z,102762.34
2023-01-25T09:26:35.163Z,102767.84
2023-01-25T09:29:04.959Z,102753.31
2023-01-25T09:31:33.621Z,102742.19
2023-01-25T09:34:33.918Z,102750.25
2023-01-25T09:37:02.074Z,102748.44
2023-01-25T09:39:30.081Z,102742.94
2023-01-25T09:42:21.523Z,102731.88
2023-01-25T09:45:12.123Z,102746.09
2023-01-25T09:47:48.868Z,102733.06
2023-01-25T09:50:36.796Z,102714.84
2023-01-25T09:53:40.166Z,102727.03
2023-01-25T09:56:13.448Z,102718.66
2023-01-25T09:58:47.021Z,102728.97
2023-01-25T10:01:38.220Z,102715.47
2023-01-25T10:04:11.229Z,102711.88
2023-01-25T10:06:46.070Z,102710.31
2023-01-25T10:09:27.727Z,102704.09
2023-01-25T10:11:55.848Z,102712.53
2023-01-25T10:14:26.077Z,102710.22
2023-01-25T10:17:04.317Z,102689.03
2023-01-25T10:19:45.017Z,102705.53
2023-01-25T10:22:16.301Z,102696.66
2023-01-25T10:25:12.125Z,102687.56
2023-01-25T10:27:45.495Z,102682.84
2023-01-25T10:30:29.017Z,102644.91
2023-01-25T10:33:00.691Z,102678.19
2023-01-25T10:35:35.892Z,102682.41
2023-01-25T10:38:14.305Z,102672.69
2023-01-25T10:40:47.408Z,102661.44
2023-01-25T10:43:19.043Z,102654.41
2023-01-25T10:45:50.203Z,102652.75
2023-01-25T10:48:22.887Z,102646.72
2023-01-25T10:50:54.142Z,102642.28
2023-01-25T10:53:34.943Z,102642.31
2023-01-25T10:56:25.433Z,102639.91
2023-01-25T10:59:06.525Z,102628.56
2023-01-25T11:01:37.736Z,102628.44
2023-01-25T11:04:24.492Z,102625.25
2023-01-25T11:06:52.839Z,102611.19
2023-01-25T11:09:33.059Z,102618.56
2023-01-25T11:12:02.693Z,102611.97
2023-01-25T11:14:32.381Z,102616.16
2023-01-25T11:17:03.028Z,102606.84
2023-01-25T11:19:34.679Z,102607.91
2023-01-25T11:22:04.927Z,102602.72
2023-01-25T11:24:35.088Z,102600.50
2023-01-25T11:27:19.671Z,102601.53
2023-01-25T11:30:07.785Z,102553.47
2023-01-25T11:32:39.563Z,102586.34
2023-01-25T11:35:14.262Z,102570.66
2023-01-25T11:37:59.741Z,102515.91
2023-01-25T11:40:35.068Z,102567.69
2023-01-25T11:43:16.250Z,102564.25
2023-01-25T11:46:06.795Z,102552.31
2023-01-25T11:48:50.632Z,102539.19
2023-01-25T11:51:26.216Z,102540.16
2023-01-25T11:54:15.864Z,102539.28
2023-01-25T11:56:55.481Z,102536.25
2023-01-25T11:59:39.674Z,102525.47
2023-01-25T12:02:26.651Z,102502.47
2023-01-25T12:05:22.383Z,102512.06
2023-01-25T12:08:02.196Z,102501.63
2023-01-25T12:10:41.286Z,102495.59
2023-01-25T12:13:19.087Z,102488.50
2023-01-25T12:16:01.037Z,102483.03
2023-01-25T12:18:53.824Z,102479.66
2023-01-25T12:21:36.822Z,102466.31
2023-01-25T12:24:17.924Z,102445.53
2023-01-25T12:26:55.145Z,102474.06
2023-01-25T12:29:27.919Z,102473.88
2023-01-25T12:32:01.656Z,102458.38
2023-01-25T12:34:33.632Z,102457.69
2023-01-25T12:37:13.416Z,102437.72
2023-01-25T12:39:46.591Z,102435.16
2023-01-25T12:42:21.335Z,102431.28
2023-01-25T12:44:57.286Z,102424.22
2023-01-25T12:47:34.687Z,102421.84
2023-01-25T12:50:14.556Z,102411.63
2023-01-25T12:52:48.264Z,102392.59
2023-01-25T12:55:18.215Z,102399.56
2023-01-25T12:57:54.596Z,102393.88
2023-01-25T13:00:27.134Z,102399.28
2023-01-25T13:03:19.096Z,102391.00
2023-01-25T13:05:53.160Z,102327.19
2023-01-25T13:08:36.331Z,102357.53
2023-01-25T13:11:15.787Z,102365.41
2023-01-25T13:13:43.878Z,102348.94
2023-01-25T13:16:35.405Z,102356.88
2023-01-25T13:19:03.900Z,102357.22
2023-01-25T13:21:44.946Z,102364.91
2023-01-25T13:24:24.016Z,102360.72
2023-01-25T13:27:03.379Z,102342.41
2023-01-25T13:30:00.285Z,102335.97
2023-01-25T13:33:03.339Z,102321.31
2023-01-25T13:35:33.972Z,102328.91
2023-01-25T13:38:05.551Z,102315.31
2023-01-25T13:40:37.361Z,102316.53
2023-01-25T13:43:17.311Z,102307.06
2023-01-25T13:45:46.204Z,102302.44
2023-01-25T13:48:17.137Z,102264.44
2023-01-25T13:50:48.356Z,102287.56
2023-01-25T13:53:21.126Z,102302.38
2023-01-25T13:55:52.245Z,102306.59
2023-01-25T13:58:22.613Z,102312.88
2023-01-25T14:00:54.043Z,102307.75
2023-01-25T14:03:26.804Z,102311.22
2023-01-25T14:05:57.079Z,102303.88
2023-01-25T14:08:27.451Z,102306.09
2023-01-25T14:10:58.257Z,102304.59
2023-01-25T14:13:26.658Z,102295.97
2023-01-25T14:15:57.274Z,102301.03
2023-01-25T14:18:30.900Z,102299.53
2023-01-25T14:21:13.944Z,102297.69
2023-01-25T14:23:42.016Z,102296.69
2023-01-25T14:26:19.889Z,102297.34
2023-01-25T14:28:59.389Z,102301.66
2023-01-25T14:31:33.594Z,102298.94
2023-01-25T14:34:04.201Z,102301.59
2023-01-25T14:36:35.308Z,102299.06
2023-01-25T14:39:04.955Z,102302.50
2023-01-25T14:41:40.152Z,102295.66
2023-01-25T14:44:14.585Z,102287.56
2023-01-25T14:46:43.007Z,102292.94
2023-01-25T14:49:25.453Z,102287.72
2023-01-25T14:52:03.799Z,102284.22
2023-01-25T14:54:33.930Z,102277.28
2023-01-25T14:57:05.536Z,102274.84
2023-01-25T14:59:38.233Z,102272.72
2023-01-25T15:02:20.526Z,102264.22
2023-01-25T15:04:57.177Z,102278.34
2023-01-25T15:07:37.917Z,102278.41
2023-01-25T15:10:17.074Z,102275.31
2023-01-25T15:13:11.686Z,102270.16
2023-01-25T15:15:52.100Z,102268.53
2023-01-25T15:18:42.616Z,102261.66
2023-01-25T15:21:11.692Z,102210.19
2023-01-25T15:23:42.098Z,102253.88
2023-01-25T15:26:15.518Z,102254.72
2023-01-25T15:28:44.972Z,102244.28
2023-01-25T15:31:18.321Z,102248.78
2023-01-25T15:33:46.791Z,102193.72
2023-01-25T15:36:16.107Z,102231.25
2023-01-25T15:38:44.159Z,102242.78
2023-01-25T15:41:13.779Z,102238.44
2023-01-25T15:43:42.288Z,102237.44
2023-01-25T15:46:22.720Z,102227.00
2023-01-25T15:48:51.959Z,102220.94
2023-01-25T15:51:20.742Z,102197.81
2023-01-25T15:53:48.851Z,102216.44
2023-01-25T15:56:19.603Z,102219.75
2023-01-25T15:58:51.510Z,102218.16
2023-01-25T16:01:27.296Z,102218.09
2023-01-25T16:03:56.275Z,102211.09
2023-01-25T16:06:38.061Z,102206.69
2023-01-25T16:09:15.050Z,102209.22
2023-01-25T16:11:43.284Z,102212.75
2023-01-25T16:14:11.367Z,102214.59
2023-01-25T16:16:44.903Z,102208.50
2023-01-25T16:19:14.538Z,102205.94
2023-01-25T16:21:42.851Z,102183.88
2023-01-25T16:24:12.169Z,102197.09
2023-01-25T16:26:44.558Z,102182.03
2023-01-25T16:29:13.793Z,102196.25
2023-01-25T16:31:43.158Z,102193.53
2023-01-25T16:34:11.254Z,102198.75
2023-01-25T16:36:39.746Z,102196.16
2023-01-25T16:39:10.224Z,102195.25
2023-01-25T16:41:38.759Z,102190.81
2023-01-25T16:44:06.822Z,102195.16
2023-01-25T16:46:34.898Z,102193.25
2023-01-25T16:49:06.955Z,102180.06
2023-01-25T16:51:35.227Z,102176.69
2023-01-25T16:54:03.277Z,102166.75
2023-01-25T16:56:33.401Z,102165.13
2023-01-25T16:59:03.658Z,102171.97
2023-01-25T17:01:34.259Z,102183.81
2023-01-25T17:04:02.337Z,102177.78
2023-01-25T17:06:33.773Z,102173.22
2023-01-25T17:09:12.585Z,102163.66
2023-01-25T17:11:44.809Z,102161.16
2023-01-25T17:14:15.538Z,102155.00
2023-01-25T17:16:45.020Z,102161.25
2023-01-25T17:19:16.204Z,102136.91
2023-01-25T17:21:46.261Z,102153.63
2023-01-25T17:24:15.797Z,102163.28
2023-01-25T17:26:43.936Z,102155.41
2023-01-25T17:29:13.614Z,102151.88
2023-01-25T17:31:42.147Z,102153.63
2023-01-25T17:34:15.865Z,102148.41
2023-01-25T17:36:46.323Z,102133.31
2023-01-25T17:39:15.726Z,102136.03
2023-01-25T17:41:43.886Z,102114.75
2023-01-25T17:44:11.952Z,102141.31
2023-01-25T17:46:40.189Z,102139.56
2023-01-25T17:49:12.137Z,102133.41
2023-01-25T17:51:40.125Z,102138.63
2023-01-25T17:54:09.795Z,102112.38
2023-01-25T17:56:39.523Z,102112.41
2023-01-25T17:59:11.536Z,102102.41
2023-01-25T18:01:45.615Z,102126.06
2023-01-25T18:04:17.373Z,102094.13
2023-01-25T18:06:45.420Z,102120.75
2023-01-25T18:09:14.953Z,102100.56
2023-01-25T18:11:42.951Z,102115.69
2023-01-25T18:14:15.174Z,102087.47
2023-01-25T18:16:43.838Z,102095.53
2023-01-25T18:19:12.320Z,102084.03
2023-01-25T18:21:41.999Z,102101.75
2023-01-25T18:24:25.940Z,102120.13
2023-01-25T18:26:59.736Z,102069.97
2023-01-25T18:29:46.270Z,102099.44
2023-01-25T18:32:15.336Z,102106.47
2023-01-25T18:34:43.692Z,102091.25
2023-01-25T18:37:20.369Z,102061.31
2023-01-25T18:39:50.893Z,102003.75
2023-01-25T18:42:19.611Z,102088.41
2023-01-25T18:44:49.043Z,102078.66
2023-01-25T18:47:18.650Z,102074.31
2023-01-25T18:49:47.605Z,102078.03
2023-01-25T18:52:16.641Z,102075.44
2023-01-25T18:54:45.193Z,102069.44
2023-01-25T18:57:14.949Z,102057.19
2023-01-25T18:59:43.056Z,102059.91
2023-01-25T19:02:12.707Z,102053.72
2023-01-25T19:04:41.013Z,102047.63
2023-01-25T19:07:09.358Z,102058.00
2023-01-25T19:09:37.502Z,102041.28
2023-01-25T19:12:06.071Z,102044.84
2023-01-25T19:14:35.499Z,102049.06
2023-01-25T19:17:03.759Z,102049.00
2023-01-25T19:19:33.691Z,102041.69
2023-01-25T19:22:02.156Z,102030.16
2023-01-25T19:24:30.892Z,102030.25
2023-01-25T19:26:58.972Z,102035.50
2023-01-25T19:29:27.079Z,102047.94
2023-01-25T19:31:56.500Z,102033.13
2023-01-25T19:34:24.636Z,102050.53
2023-01-25T19:36:53.789Z,102044.47
2023-01-25T19:39:21.839Z,101964.53
2023-01-25T19:41:52.289Z,102032.50
2023-01-25T19:44:20.644Z,102029.06
2023-01-25T19:46:48.874Z,102036.28
2023-01-25T19:49:18.479Z,102027.38
2023-01-25T19:51:52.760Z,102029.84
2023-01-25T19:54:21.673Z,102026.09
2023-01-25T19:56:50.693Z,102018.56
2023-01-25T19:59:20.877Z,102013.47
2023-01-25T20:01:50.698Z,102018.69
2023-01-25T20:04:22.338Z,102020.41
2023-01-25T20:06:51.238Z,102016.25
2023-01-25T20:09:20.643Z,102018.69
2023-01-25T20:11:51.441Z,101999.47
2023-01-25T20:14:19.638Z,102001.31
2023-01-25T20:16:52.549Z,101990.78
2023-01-25T20:19:21.953Z,102005.72
2023-01-25T20:21:49.913Z,101992.22
2023-01-25T20:24:17.988Z,101963.34
2023-01-25T20:26:46.167Z,101992.63
2023-01-25T20:29:14.617Z,101992.63
2023-01-25T20:31:46.744Z,101968.56
2023-01-25T20:34:16.386Z,101969.47
2023-01-25T20:36:46.229Z,101994.31
2023-01-25T20:39:16.316Z,101969.75
2023-01-25T20:41:44.571Z,101989.22
2023-01-25T20:44:14.816Z,101988.94
2023-01-25T20:46:43.853Z,102000.53
2023-01-25T20:49:15.890Z,101990.66
2023-01-25T20:51:46.025Z,101989.78
2023-01-25T20:54:14.253Z,101989.59
2023-01-25T20:56:43.000Z,101980.06
2023-01-25T20:59:11.228Z,101987.16
2023-01-25T21:01:39.294Z,101982.91
2023-01-25T21:04:09.607Z,101979.41
2023-01-25T21:06:38.616Z,101970.63
2023-01-25T21:09:08.298Z,101967.22
2023-01-25T21:11:36.297Z,101963.06
2023-01-25T21:14:04.422Z,101963.94
2023-01-25T21:16:32.389Z,101957.81
2023-01-25T21:19:05.144Z,101965.31
2023-01-25T21:21:34.726Z,101965.72
2023-01-25T21:24:05.387Z,101960.09
2023-01-25T21:26:37.122Z,101953.22
2023-01-25T21:29:06.508Z,101938.28
2023-01-25T21:31:35.947Z,101954.50
2023-01-25T21:34:05.118Z,101947.78
2023-01-25T21:36:33.242Z,101956.50
2023-01-25T21:39:01.362Z,101955.72
2023-01-25T21:41:33.290Z,101938.19
2023-01-25T21:44:22.177Z,101950.38
2023-01-25T21:47:19.717Z,101945.09
2023-01-25T21:49:55.626Z,101952.34
2023-01-25T21:52:23.750Z,101948.50
2023-01-25T21:54:51.671Z,101952.06
2023-01-25T21:57:20.186Z,101951.94
2023-01-25T21:59:49.520Z,101950.81
2023-01-25T22:02:17.577Z,101947.56
2023-01-25T22:04:45.612Z,101949.50
2023-01-25T22:07:13.539Z,101947.16
2023-01-25T22:09:41.306Z,101941.88
2023-01-25T22:12:09.246Z,101947.44
2023-01-25T22:14:37.207Z,101943.94
2023-01-25T22:17:06.593Z,101952.19
2023-01-25T22:19:34.511Z,101952.16
2023-01-25T22:22:02.544Z,101947.06
2023-01-25T22:24:30.484Z,101898.63
2023-01-25T22:27:05.420Z,101951.97
2023-01-25T22:29:33.989Z,101954.66
2023-01-25T22:32:02.163Z,101954.59
2023-01-25T22:34:31.663Z,101944.84
2023-01-25T22:37:02.348Z,101933.75
2023-01-25T22:39:30.259Z,101948.69
2023-01-25T22:41:57.984Z,101942.56
2023-01-25T22:44:26.084Z,101943.63
2023-01-25T22:46:54.099Z,101935.47
2023-01-25T22:49:22.048Z,101931.09
2023-01-25T22:51:51.137Z,101934.69
2023-01-25T22:54:19.217Z,101933.88
2023-01-25T22:56:47.137Z,101911.38
2023-01-25T22:59:18.769Z,101854.28
2023-01-25T23:01:47.292Z,101910.97
2023-01-25T23:04:15.312Z,101916.47
2023-01-25T23:06:46.356Z,101912.84
2023-01-25T23:09:15.711Z,101910.25
2023-01-25T23:11:43.626Z,101908.72
2023-01-25T23:14:30.896Z,101909.31
2023-01-25T23:17:12.912Z,101902.44
2023-01-25T23:19:40.838Z,101891.72
2023-01-25T23:22:08.615Z,101886.53
2023-01-25T23:24:37.968Z,101895.81
2023-01-25T23:27:05.907Z,101889.78
2023-01-25T23:29:33.924Z,101885.81
2023-01-25T23:32:01.890Z,101874.25
2023-01-25T23:34:34.630Z,101871.19
2023-01-25T23:37:02.620Z,101858.19
2023-01-25T23:39:30.573Z,101861.53
2023-01-25T23:41:59.967Z,101860.06
2023-01-25T23:44:28.206Z,101855.81
2023-01-25T23:46:56.178Z,101852.25
2023-01-25T23:49:24.178Z,101848.03
2023-01-25T23:51:52.081Z,101840.97
2023-01-25T23:54:19.938Z,101843.66
2023-01-25T23:56:47.932Z,101841.78
2023-01-25T23:59:17.036Z,101848.41
